Time;durP1;ratioP1;P1;durP2;ratioP2;P2;SDS_P1;SDS_P2;PMS_P1;PMS_P2;Temp;Humidity;BMP_temperature;BMP_pressure;BME280_temperature;BME280_humidity;BME280_pressure;Samples;Min_cycle;Max_cycle;Signal;HPM_P1;HPM_P2
2022/11/08 00:01:58;;;;;;;5.85;2.53;;;12.70;99.90;;;;;;6101034;23;20229;-50
2022/11/08 00:04:24;;;;;;;8.15;2.95;;;12.70;99.90;;;;;;6123528;23;20204;-50
2022/11/08 00:15:04;;;;;;;5.40;2.40;;;12.60;99.90;;;;;;6122900;23;20149;-53
2022/11/08 00:17:30;;;;;;;7.30;2.33;;;12.60;99.90;;;;;;6123111;23;20203;-50
2022/11/08 00:19:56;;;;;;;7.47;2.50;;;12.60;99.90;;;;;;6122660;23;20650;-52
2022/11/08 00:22:22;;;;;;;5.22;2.42;;;12.60;99.90;;;;;;6122903;23;20145;-50
2022/11/08 00:24:48;;;;;;;6.18;2.22;;;12.50;99.90;;;;;;6097534;23;20208;-50
2022/11/08 00:27:15;;;;;;;4.15;2.00;;;12.60;99.90;;;;;;6097550;23;20189;-50
2022/11/08 00:29:41;;;;;;;7.43;2.38;;;12.60;99.90;;;;;;6123046;23;20227;-50
2022/11/08 00:32:10;;;;;;;5.88;2.45;;;12.50;99.90;;;;;;6123066;23;20162;-51
2022/11/08 00:34:35;;;;;;;6.70;2.30;;;12.50;99.90;;;;;;6123125;23;20176;-54
2022/11/08 00:37:02;;;;;;;7.10;2.40;;;12.50;99.90;;;;;;6097444;23;20154;-52
2022/11/08 00:39:27;;;;;;;7.15;2.33;;;12.50;99.90;;;;;;6097407;23;20173;-50
2022/11/08 00:41:53;;;;;;;7.05;2.28;;;12.60;99.90;;;;;;6097307;23;20161;-50
2022/11/08 00:44:19;;;;;;;6.35;2.38;;;12.50;99.90;;;;;;6122449;23;20658;-52
2022/11/08 00:46:44;;;;;;;6.43;2.35;;;12.50;99.90;;;;;;6123126;23;20188;-49
2022/11/08 00:49:10;;;;;;;9.18;2.75;;;12.40;99.90;;;;;;6122663;23;20157;-51
2022/11/08 00:51:36;;;;;;;6.60;2.60;;;12.50;99.90;;;;;;6097130;23;20194;-50
2022/11/08 00:54:03;;;;;;;6.70;3.10;;;12.40;99.90;;;;;;6123140;23;20180;-50
2022/11/08 00:56:29;;;;;;;7.07;2.80;;;12.50;99.90;;;;;;6097248;23;20149;-52
2022/11/08 00:58:55;;;;;;;6.07;3.30;;;12.50;99.90;;;;;;6097228;23;20154;-50
2022/11/08 01:01:21;;;;;;;7.40;3.42;;;12.50;99.90;;;;;;6122976;23;20164;-50
2022/11/08 01:03:47;;;;;;;8.30;3.50;;;12.50;99.90;;;;;;6122707;23;20204;-50
2022/11/08 01:06:15;;;;;;;8.30;3.45;;;12.50;99.90;;;;;;6122991;23;20589;-51
2022/11/08 01:08:41;;;;;;;6.78;3.42;;;12.50;99.90;;;;;;6123138;23;20164;-50
2022/11/08 01:11:16;;;;;;;6.93;3.67;;;12.50;99.90;;;;;;6097210;23;20500;-49
2022/11/08 01:13:42;;;;;;;6.65;3.47;;;12.50;99.90;;;;;;6122478;23;20235;-49
2022/11/08 01:16:13;;;;;;;5.82;3.17;;;12.40;99.90;;;;;;6122620;23;20154;-51
2022/11/08 01:18:39;;;;;;;5.82;3.20;;;12.50;99.90;;;;;;6123032;23;20146;-51
2022/11/08 01:21:05;;;;;;;8.63;3.65;;;12.50;99.90;;;;;;6097377;23;20164;-50
2022/11/08 01:23:31;;;;;;;6.10;3.35;;;12.50;99.90;;;;;;6123196;23;20161;-53
2022/11/08 01:26:05;;;;;;;7.40;3.58;;;12.50;99.90;;;;;;6122937;23;20531;-51
2022/11/08 01:28:32;;;;;;;6.68;3.05;;;12.50;99.90;;;;;;6122966;23;20173;-49
2022/11/08 01:31:06;;;;;;;6.95;3.35;;;12.60;99.90;;;;;;6122824;23;20176;-50
2022/11/08 01:33:32;;;;;;;7.70;3.13;;;12.50;99.90;;;;;;6122899;23;20145;-51
2022/11/08 01:35:59;;;;;;;8.40;2.90;;;12.50;99.90;;;;;;6122552;23;20188;-50
2022/11/08 01:38:25;;;;;;;6.20;2.80;;;12.50;99.90;;;;;;6097209;23;20156;-50
2022/11/08 01:40:51;;;;;;;8.38;2.90;;;12.60;99.90;;;;;;6122764;23;20173;-50
2022/11/08 01:43:31;;;;;;;7.10;3.10;;;12.60;99.90;;;;;;6122424;23;20149;-52
2022/11/08 01:46:21;;;;;;;7.03;2.40;;;12.70;99.90;;;;;;6123019;23;20137;-50
2022/11/08 01:48:54;;;;;;;6.20;2.63;;;12.70;99.90;;;;;;6122869;23;20142;-50
2022/11/08 01:51:24;;;;;;;4.63;2.40;;;12.60;99.90;;;;;;6122423;23;20176;-53
2022/11/08 01:53:50;;;;;;;6.30;2.42;;;12.60;99.90;;;;;;6122801;23;20229;-51
2022/11/08 01:56:16;;;;;;;4.85;2.00;;;12.50;99.90;;;;;;6122729;23;20232;-50
2022/11/08 01:58:45;;;;;;;4.35;2.17;;;12.60;99.90;;;;;;6096829;23;20157;-50
2022/11/08 02:01:11;;;;;;;3.88;2.17;;;12.50;99.90;;;;;;6122659;23;20157;-50
2022/11/08 02:03:39;;;;;;;6.47;2.17;;;12.60;99.90;;;;;;6122737;23;20149;-51
2022/11/08 02:06:05;;;;;;;6.82;2.20;;;12.60;99.90;;;;;;6096848;23;20249;-52
2022/11/08 02:08:35;;;;;;;4.85;2.15;;;12.60;99.90;;;;;;6096836;23;20207;-50
2022/11/08 02:11:02;;;;;;;5.95;2.17;;;12.60;99.90;;;;;;6096656;23;20252;-50
2022/11/08 02:13:30;;;;;;;4.15;2.10;;;12.60;99.90;;;;;;6122740;23;20157;-50
2022/11/08 02:15:56;;;;;;;5.60;2.35;;;12.60;99.90;;;;;;6122626;23;20145;-52
2022/11/08 02:18:26;;;;;;;5.00;2.05;;;12.60;99.90;;;;;;6122546;23;20157;-50
2022/11/08 02:20:57;;;;;;;5.90;1.92;;;12.60;99.90;;;;;;6122540;23;20532;-50
2022/11/08 02:23:28;;;;;;;6.70;2.50;;;12.60;99.90;;;;;;6122260;23;20471;-50
2022/11/08 02:25:54;;;;;;;3.88;1.80;;;12.60;99.90;;;;;;6122626;23;20205;-50
2022/11/08 02:28:20;;;;;;;5.25;1.95;;;12.60;99.90;;;;;;6122525;23;20184;-52
2022/11/08 02:30:46;;;;;;;6.60;2.28;;;12.60;99.90;;;;;;6122433;23;20218;-50
2022/11/08 02:33:18;;;;;;;4.38;1.80;;;12.60;99.90;;;;;;6122592;23;20240;-49
2022/11/08 02:35:54;;;;;;;3.97;1.77;;;12.60;99.90;;;;;;6096594;23;20150;-52
2022/11/08 02:38:21;;;;;;;3.90;1.88;;;12.60;99.90;;;;;;6122318;23;20587;-51
2022/11/08 02:40:52;;;;;;;5.05;2.10;;;12.60;99.90;;;;;;6096681;23;20232;-50
2022/11/08 02:43:18;;;;;;;7.03;2.20;;;12.50;99.90;;;;;;6121756;23;20525;-50
2022/11/08 02:45:44;;;;;;;5.00;1.80;;;12.50;99.90;;;;;;6122196;23;20643;-51
2022/11/08 02:48:10;;;;;;;5.20;2.15;;;12.50;99.90;;;;;;6096711;23;20158;-51
2022/11/08 02:50:36;;;;;;;5.18;2.10;;;12.50;99.90;;;;;;6096260;23;20647;-53
2022/11/08 02:53:02;;;;;;;5.45;1.83;;;12.40;99.90;;;;;;6096591;23;20162;-52
2022/11/08 02:55:28;;;;;;;3.55;2.00;;;12.40;99.90;;;;;;6122389;23;20173;-53
2022/11/08 02:57:55;;;;;;;4.30;1.90;;;12.40;99.90;;;;;;6122271;23;20154;-53
2022/11/08 03:00:20;;;;;;;6.38;2.35;;;12.40;99.90;;;;;;6096683;23;20158;-50
2022/11/08 03:02:50;;;;;;;3.47;2.05;;;12.40;99.90;;;;;;6121874;23;20588;-53
2022/11/08 03:05:19;;;;;;;6.75;2.13;;;12.40;99.90;;;;;;6097271;23;20447;-52
2022/11/08 03:07:45;;;;;;;5.05;2.05;;;12.50;99.90;;;;;;6096524;23;20149;-52
2022/11/08 03:10:12;;;;;;;4.03;2.22;;;12.40;99.90;;;;;;6072379;23;20177;-52
2022/11/08 03:12:38;;;;;;;4.82;1.90;;;12.40;99.90;;;;;;6122230;23;20225;-53
2022/11/08 03:15:06;;;;;;;3.58;1.83;;;12.40;99.90;;;;;;6096684;23;20153;-52
2022/11/08 03:17:32;;;;;;;3.60;2.05;;;12.40;99.90;;;;;;6122079;23;20177;-53
2022/11/08 03:19:58;;;;;;;5.47;2.00;;;12.50;99.90;;;;;;6122056;23;20188;-52
2022/11/08 03:22:24;;;;;;;6.10;2.10;;;12.40;99.90;;;;;;6122034;23;20149;-52
2022/11/08 03:24:50;;;;;;;4.88;2.20;;;12.40;99.90;;;;;;6121975;23;20154;-52
2022/11/08 03:27:17;;;;;;;6.70;2.30;;;12.40;99.90;;;;;;6096250;23;20184;-53
2022/11/08 03:29:44;;;;;;;4.82;2.38;;;12.40;99.90;;;;;;6121861;23;20181;-55
2022/11/08 03:32:10;;;;;;;4.93;2.08;;;12.40;99.90;;;;;;6122084;23;20163;-52
2022/11/08 03:34:35;;;;;;;4.90;2.35;;;12.40;99.90;;;;;;6096227;23;20485;-51
2022/11/08 03:37:01;;;;;;;4.43;2.03;;;12.40;99.90;;;;;;6121593;23;20233;-51
2022/11/08 03:39:27;;;;;;;4.00;1.90;;;12.40;99.90;;;;;;6096245;23;20726;-53
2022/11/08 03:41:52;;;;;;;4.57;1.85;;;12.40;99.90;;;;;;6121876;23;20577;-49
2022/11/08 03:44:18;;;;;;;6.15;2.10;;;12.30;99.90;;;;;;6121842;23;20176;-53
2022/11/08 03:46:43;;;;;;;3.88;1.85;;;12.30;99.90;;;;;;6096215;23;20150;-52
2022/11/08 03:49:10;;;;;;;3.33;2.17;;;12.20;99.90;;;;;;6121748;23;20177;-52
2022/11/08 03:51:36;;;;;;;5.00;2.10;;;12.30;99.90;;;;;;6121349;23;20548;-50
2022/11/08 03:54:01;;;;;;;6.15;2.10;;;12.10;99.90;;;;;;6121732;23;20150;-51
2022/11/08 03:56:27;;;;;;;6.00;1.95;;;12.10;99.90;;;;;;6096665;23;20164;-49
2022/11/08 03:58:53;;;;;;;2.67;1.90;;;12.10;99.90;;;;;;6097434;23;20153;-49
2022/11/08 04:01:18;;;;;;;3.58;1.88;;;12.20;99.90;;;;;;6097458;23;20207;-50
2022/11/08 04:03:44;;;;;;;3.88;1.98;;;12.10;99.90;;;;;;6123180;23;20203;-51
2022/11/08 04:06:09;;;;;;;4.75;2.03;;;12.10;99.90;;;;;;6097457;23;20154;-50
2022/11/08 04:08:35;;;;;;;3.75;1.63;;;12.10;99.90;;;;;;6097459;23;20189;-50
2022/11/08 04:16:31;;;;;;;3.45;1.77;;;12.00;99.90;;;;;;6101049;23;20153;-49
2022/11/08 04:21:50;;;;;;;3.55;2.05;;;12.00;99.90;;;;;;6122909;23;20157;-49
2022/11/08 04:24:16;;;;;;;4.38;2.05;;;12.00;99.90;;;;;;6123131;23;20149;-50
2022/11/08 04:26:41;;;;;;;3.03;1.90;;;12.00;99.90;;;;;;6122802;23;20154;-49
2022/11/08 04:29:08;;;;;;;2.55;1.60;;;12.00;99.90;;;;;;6123190;23;20207;-50
2022/11/08 04:31:34;;;;;;;3.85;1.70;;;12.00;99.90;;;;;;6123055;23;20181;-53
2022/11/08 04:34:00;;;;;;;4.38;1.90;;;12.00;99.90;;;;;;6122802;23;20153;-52
2022/11/08 04:36:26;;;;;;;3.83;1.63;;;11.90;99.90;;;;;;6123129;23;20153;-50
2022/11/08 04:38:53;;;;;;;2.38;1.60;;;12.00;99.90;;;;;;6122735;23;20150;-50
2022/11/08 04:41:20;;;;;;;3.75;1.70;;;12.00;99.90;;;;;;6123070;23;20315;-50
2022/11/08 04:43:47;;;;;;;3.15;1.65;;;12.00;99.90;;;;;;6123054;23;20166;-50
2022/11/08 04:46:18;;;;;;;3.97;1.70;;;11.90;99.90;;;;;;6122660;23;20154;-50
2022/11/08 04:48:45;;;;;;;2.85;1.50;;;11.90;99.90;;;;;;6097278;23;20284;-52
2022/11/08 04:51:15;;;;;;;3.28;1.77;;;12.10;99.90;;;;;;6122645;23;20612;-52
2022/11/08 04:53:40;;;;;;;4.55;1.70;;;12.10;99.90;;;;;;6123013;23;20150;-51
2022/11/08 04:56:09;;;;;;;4.10;1.50;;;12.00;99.90;;;;;;6122751;23;20204;-51
2022/11/08 04:58:40;;;;;;;3.13;1.50;;;12.00;99.90;;;;;;6122928;23;20146;-52
2022/11/08 05:01:07;;;;;;;3.13;1.30;;;12.00;99.90;;;;;;6123055;23;20149;-51
2022/11/08 05:03:33;;;;;;;3.35;1.73;;;12.00;99.90;;;;;;6097520;23;20149;-52
2022/11/08 05:06:11;;;;;;;3.08;1.60;;;12.00;99.90;;;;;;6122936;23;20153;-50
2022/11/08 05:08:37;;;;;;;2.60;1.50;;;12.00;99.90;;;;;;6122951;23;20137;-50
2022/11/08 05:11:09;;;;;;;2.63;1.65;;;11.80;99.90;;;;;;6122850;23;20188;-51
2022/11/08 05:13:35;;;;;;;3.75;1.80;;;11.90;99.90;;;;;;6122877;23;20154;-50
2022/11/08 05:16:04;;;;;;;2.65;1.40;;;11.80;99.90;;;;;;6123008;23;20523;-52
2022/11/08 05:18:31;;;;;;;3.75;1.55;;;11.80;99.90;;;;;;6122524;23;20203;-50
2022/11/08 05:23:43;;;;;;;3.45;2.25;;;11.70;99.90;;;;;;6122228;23;20148;-49
2022/11/08 05:26:09;;;;;;;2.95;1.70;;;11.70;99.90;;;;;;6097057;23;20307;-50
2022/11/08 05:28:35;;;;;;;3.00;1.48;;;11.70;99.90;;;;;;6122881;23;20150;-51
2022/11/08 05:31:02;;;;;;;2.65;1.50;;;11.70;99.90;;;;;;6096561;23;20504;-53
2022/11/08 05:33:27;;;;;;;3.25;1.60;;;11.70;99.90;;;;;;6122777;23;20160;-50
2022/11/08 05:35:53;;;;;;;3.17;1.63;;;11.80;99.90;;;;;;6097111;23;20181;-49
2022/11/08 05:38:19;;;;;;;2.58;1.45;;;11.80;99.90;;;;;;6122016;23;20211;-50
2022/11/08 05:40:45;;;;;;;2.70;1.23;;;11.80;99.90;;;;;;6122287;23;20210;-51
2022/11/08 05:43:11;;;;;;;3.83;1.45;;;11.90;99.90;;;;;;6096729;23;20477;-53
2022/11/08 05:45:37;;;;;;;3.90;1.40;;;11.90;99.90;;;;;;6122380;23;20145;-50
2022/11/08 05:48:03;;;;;;;2.65;1.40;;;11.90;99.90;;;;;;6122209;23;20597;-50
2022/11/08 05:50:33;;;;;;;1.90;1.50;;;11.80;99.90;;;;;;6122635;23;20185;-50
2022/11/08 05:52:59;;;;;;;2.33;1.48;;;11.80;99.90;;;;;;6122663;23;20256;-50
2022/11/08 05:55:25;;;;;;;2.58;1.52;;;11.90;99.90;;;;;;6122727;23;20172;-53
2022/11/08 05:57:51;;;;;;;2.22;1.33;;;12.00;99.90;;;;;;6120736;23;20258;-51
2022/11/08 06:00:17;;;;;;;2.97;1.52;;;12.00;99.90;;;;;;6093386;23;20157;-50
2022/11/08 06:02:43;;;;;;;4.10;1.45;;;12.00;99.90;;;;;;6120993;23;20180;-52
2022/11/08 06:05:09;;;;;;;3.83;1.77;;;12.00;99.90;;;;;;6094911;23;20157;-51
2022/11/08 06:07:35;;;;;;;2.28;1.30;;;12.00;99.90;;;;;;6096478;23;20177;-50
2022/11/08 06:10:02;;;;;;;2.38;1.15;;;12.00;99.90;;;;;;6121447;23;20270;-51
2022/11/08 06:12:28;;;;;;;2.30;1.50;;;12.00;99.90;;;;;;6122523;23;20531;-50
2022/11/08 06:14:53;;;;;;;4.53;1.50;;;12.10;99.90;;;;;;6122671;23;20196;-51
2022/11/08 06:17:19;;;;;;;2.67;1.58;;;12.10;99.90;;;;;;6096856;23;20176;-50
2022/11/08 06:19:44;;;;;;;1.95;1.42;;;12.10;99.90;;;;;;6121672;23;20154;-50
2022/11/08 06:22:10;;;;;;;2.65;1.50;;;12.20;99.90;;;;;;6122596;23;20154;-52
2022/11/08 06:24:36;;;;;;;2.30;1.40;;;12.20;99.90;;;;;;6122520;23;20149;-50
2022/11/08 06:27:01;;;;;;;2.70;1.50;;;12.20;99.90;;;;;;6122574;23;20175;-50
2022/11/08 06:29:27;;;;;;;2.53;1.60;;;12.10;99.90;;;;;;6096909;23;20154;-50
2022/11/08 06:31:53;;;;;;;1.85;1.30;;;12.10;99.90;;;;;;6096689;23;20245;-50
2022/11/08 06:34:19;;;;;;;2.53;1.60;;;12.20;99.90;;;;;;6122391;23;20162;-50
2022/11/08 06:36:44;;;;;;;2.40;1.45;;;12.10;99.90;;;;;;6122428;23;20159;-53
2022/11/08 06:39:10;;;;;;;1.75;1.23;;;12.10;99.90;;;;;;6096611;23;20462;-50
2022/11/08 06:41:36;;;;;;;3.30;1.58;;;12.10;99.90;;;;;;6122414;23;20623;-52
2022/11/08 06:44:01;;;;;;;5.85;1.70;;;12.10;99.90;;;;;;6122109;23;20172;-50
2022/11/08 06:46:27;;;;;;;3.30;1.70;;;12.10;99.90;;;;;;6122002;23;20225;-50
2022/11/08 06:48:53;;;;;;;3.50;1.63;;;12.10;99.90;;;;;;6096576;23;20153;-50
2022/11/08 06:51:19;;;;;;;2.22;1.55;;;12.10;99.90;;;;;;6096472;23;20189;-53
2022/11/08 06:53:45;;;;;;;3.55;1.67;;;12.00;99.90;;;;;;6122327;23;20229;-52
2022/11/08 06:56:11;;;;;;;2.88;1.63;;;12.00;99.90;;;;;;6122215;23;20184;-50
2022/11/08 06:58:37;;;;;;;4.88;1.48;;;12.00;99.90;;;;;;6096663;23;20527;-50
2022/11/08 07:01:08;;;;;;;2.90;1.50;;;12.10;99.90;;;;;;6072518;23;20161;-53
2022/11/08 07:03:33;;;;;;;3.17;1.70;;;12.10;99.90;;;;;;6096464;23;20469;-53
2022/11/08 07:06:04;;;;;;;4.13;1.80;;;12.20;99.90;;;;;;6096472;23;20153;-49
2022/11/08 07:08:31;;;;;;;1.90;1.50;;;12.20;99.90;;;;;;6121715;23;20454;-53
2022/11/08 07:10:57;;;;;;;2.10;1.40;;;12.20;99.90;;;;;;6122317;23;20177;-54
2022/11/08 07:13:23;;;;;;;3.20;1.70;;;12.20;99.90;;;;;;6096132;23;20603;-53
2022/11/08 07:15:48;;;;;;;2.28;1.58;;;12.20;99.90;;;;;;6122192;23;20331;-53
2022/11/08 07:18:16;;;;;;;2.55;1.33;;;12.30;99.90;;;;;;6122009;23;20158;-52
2022/11/08 07:20:42;;;;;;;2.53;1.40;;;12.20;99.90;;;;;;6122102;23;20149;-50
2022/11/08 07:23:09;;;;;;;1.65;1.42;;;12.20;99.90;;;;;;6122060;23;20160;-53
2022/11/08 07:25:35;;;;;;;4.43;1.98;;;12.30;99.90;;;;;;6095984;23;20204;-51
2022/11/08 07:28:03;;;;;;;5.30;1.45;;;12.40;99.90;;;;;;6095707;23;20161;-51
2022/11/08 07:30:29;;;;;;;3.85;1.75;;;12.50;99.90;;;;;;6122180;23;20242;-53
2022/11/08 07:32:55;;;;;;;1.92;1.40;;;12.30;99.90;;;;;;6123329;23;20194;-51
2022/11/08 07:35:22;;;;;;;2.00;1.50;;;12.30;99.90;;;;;;6123327;23;20154;-52
2022/11/08 07:37:48;;;;;;;4.68;1.98;;;12.30;99.90;;;;;;6123289;23;20156;-53
2022/11/08 07:40:14;;;;;;;3.10;1.98;;;12.40;99.90;;;;;;6123053;23;20157;-50
2022/11/08 07:42:41;;;;;;;3.85;1.60;;;12.50;99.90;;;;;;6123111;23;20168;-51
2022/11/08 07:45:08;;;;;;;4.68;2.05;;;12.50;99.90;;;;;;6122843;23;20165;-50
2022/11/08 07:47:33;;;;;;;2.22;1.33;;;12.60;99.90;;;;;;6097511;23;20203;-51
2022/11/08 07:49:59;;;;;;;2.85;1.63;;;12.60;99.90;;;;;;6123102;23;20500;-53
2022/11/08 07:52:25;;;;;;;3.15;1.52;;;12.50;99.90;;;;;;6122810;23;20228;-53
2022/11/08 07:54:51;;;;;;;4.57;1.98;;;12.60;99.90;;;;;;6097718;23;20185;-52
2022/11/08 07:57:16;;;;;;;2.47;1.63;;;12.60;99.90;;;;;;6123250;23;20454;-50
2022/11/08 07:59:42;;;;;;;2.78;1.33;;;12.60;99.90;;;;;;6123253;23;20593;-51
2022/11/08 08:02:11;;;;;;;1.80;1.42;;;12.70;99.90;;;;;;6123198;23;20473;-52
2022/11/08 08:04:37;;;;;;;2.65;1.50;;;12.70;99.90;;;;;;6097239;23;20449;-50
2022/11/08 08:07:03;;;;;;;5.35;1.92;;;12.70;99.90;;;;;;6123241;23;20156;-52
2022/11/08 08:09:29;;;;;;;2.03;1.42;;;12.80;99.90;;;;;;6123147;23;20158;-50
2022/11/08 08:11:55;;;;;;;2.83;1.83;;;12.90;99.90;;;;;;6123178;23;20171;-54
2022/11/08 08:14:21;;;;;;;3.10;1.83;;;12.90;99.90;;;;;;6122780;23;20158;-49
2022/11/08 08:16:47;;;;;;;2.63;1.63;;;13.00;99.90;;;;;;6122858;23;20177;-51
2022/11/08 08:19:13;;;;;;;3.33;1.60;;;13.00;99.90;;;;;;6123211;23;20153;-53
2022/11/08 08:21:38;;;;;;;2.38;1.48;;;12.90;99.90;;;;;;6123192;23;20317;-51
2022/11/08 08:24:04;;;;;;;2.70;1.60;;;13.00;99.90;;;;;;6123140;23;20485;-51
2022/11/08 08:26:30;;;;;;;2.67;1.70;;;13.10;99.90;;;;;;6123091;23;20150;-50
2022/11/08 08:28:56;;;;;;;3.22;1.63;;;13.10;99.90;;;;;;6123039;23;20157;-50
2022/11/08 08:31:21;;;;;;;3.72;1.90;;;13.10;99.90;;;;;;6123063;23;20216;-49
2022/11/08 08:33:47;;;;;;;4.78;1.88;;;13.20;99.90;;;;;;6123116;23;20154;-50
2022/11/08 08:36:13;;;;;;;2.90;1.60;;;13.10;99.90;;;;;;6123059;23;20657;-51
2022/11/08 08:38:38;;;;;;;2.83;1.67;;;13.10;99.90;;;;;;6097053;23;20608;-50
2022/11/08 08:41:04;;;;;;;2.15;1.60;;;13.10;99.90;;;;;;6097118;23;20588;-51
2022/11/08 08:43:33;;;;;;;4.60;1.70;;;13.20;99.90;;;;;;6122471;23;20165;-50
2022/11/08 08:46:00;;;;;;;2.78;1.67;;;13.10;99.90;;;;;;6123031;23;20160;-50
2022/11/08 08:48:26;;;;;;;2.75;1.50;;;13.20;99.90;;;;;;6097299;23;20156;-53
2022/11/08 08:50:52;;;;;;;3.92;1.67;;;13.20;99.90;;;;;;6122716;23;20189;-53
2022/11/08 08:53:17;;;;;;;5.22;1.65;;;13.30;99.90;;;;;;6123315;23;20164;-52
2022/11/08 08:55:43;;;;;;;2.50;1.73;;;13.40;99.90;;;;;;6097239;23;20157;-54
2022/11/08 08:58:09;;;;;;;2.38;1.70;;;13.40;99.90;;;;;;6097250;23;20154;-50
2022/11/08 09:00:35;;;;;;;3.45;1.90;;;13.50;99.90;;;;;;6122652;23;20589;-50
2022/11/08 09:03:06;;;;;;;5.15;1.75;;;13.60;99.90;;;;;;6122950;23;20153;-50
2022/11/08 09:05:33;;;;;;;3.33;1.58;;;13.60;99.90;;;;;;6122762;23;20466;-53
2022/11/08 09:07:59;;;;;;;3.75;1.80;;;13.70;99.90;;;;;;6097059;23;20593;-52
2022/11/08 09:10:25;;;;;;;3.67;1.63;;;13.80;99.90;;;;;;6122765;23;20234;-50
2022/11/08 09:12:51;;;;;;;2.78;1.67;;;13.80;99.90;;;;;;6122692;23;20276;-51
2022/11/08 09:15:17;;;;;;;4.32;1.88;;;13.90;99.90;;;;;;6122874;23;20511;-50
2022/11/08 09:17:43;;;;;;;3.22;1.60;;;14.00;99.90;;;;;;6097290;23;20158;-51
2022/11/08 09:20:09;;;;;;;3.58;1.63;;;14.00;99.90;;;;;;6122912;23;20153;-52
2022/11/08 09:22:35;;;;;;;3.53;1.70;;;14.00;99.90;;;;;;6122876;23;20153;-53
2022/11/08 09:25:01;;;;;;;5.88;1.80;;;14.00;99.90;;;;;;6122904;23;20156;-54
2022/11/08 09:27:29;;;;;;;4.60;2.00;;;14.10;99.90;;;;;;6097032;23;20157;-54
2022/11/08 09:29:54;;;;;;;2.30;1.60;;;14.20;99.90;;;;;;6122700;23;20635;-53
2022/11/08 09:32:21;;;;;;;3.13;1.67;;;14.20;99.90;;;;;;6097102;23;20154;-53
2022/11/08 09:34:46;;;;;;;4.28;1.75;;;14.30;99.90;;;;;;6122805;23;20160;-52
2022/11/08 09:37:13;;;;;;;2.70;1.75;;;14.30;99.90;;;;;;6097148;23;20477;-52
2022/11/08 09:39:38;;;;;;;4.28;1.90;;;14.20;99.90;;;;;;6122839;23;20180;-52
2022/11/08 09:42:23;;;;;;;3.00;1.75;;;14.20;99.90;;;;;;6122444;23;20146;-51
2022/11/08 09:45:10;;;;;;;4.88;1.70;;;14.20;99.90;;;;;;6123007;23;20173;-53
2022/11/08 09:47:39;;;;;;;3.22;1.75;;;14.00;99.90;;;;;;6098769;23;20477;-51
2022/11/08 09:50:20;;;;;;;2.25;1.70;;;14.10;99.90;;;;;;6122797;23;20216;-52
2022/11/08 09:53:10;;;;;;;4.13;1.60;;;14.10;99.90;;;;;;6122348;23;20145;-51
2022/11/08 09:55:44;;;;;;;2.38;1.58;;;14.00;99.90;;;;;;6122482;23;20573;-51
2022/11/08 09:58:31;;;;;;;3.25;1.83;;;14.00;99.90;;;;;;6122745;23;20641;-50
2022/11/08 10:00:58;;;;;;;4.07;1.83;;;14.00;99.90;;;;;;6096530;23;20244;-50
2022/11/08 10:03:24;;;;;;;4.60;2.00;;;14.00;99.90;;;;;;6122387;23;20145;-51
2022/11/08 10:06:28;;;;;;;2.90;1.55;;;14.00;99.90;;;;;;6122668;23;20162;-50
2022/11/08 10:09:14;;;;;;;3.28;1.90;;;13.90;99.90;;;;;;6118297;23;20157;-52
2022/11/08 10:11:48;;;;;;;3.90;1.90;;;14.10;99.90;;;;;;6077182;23;20199;-50
2022/11/08 10:14:25;;;;;;;4.75;1.60;;;14.20;99.90;;;;;;6122864;23;20161;-50
2022/11/08 10:17:10;;;;;;;3.55;1.65;;;14.30;99.90;;;;;;6122233;23;20654;-52
2022/11/08 10:20:02;;;;;;;2.45;1.80;;;14.30;99.90;;;;;;6122637;23;20191;-51
2022/11/08 10:22:53;;;;;;;3.08;1.70;;;14.30;99.90;;;;;;6122275;23;20242;-50
2022/11/08 10:25:23;;;;;;;2.40;1.63;;;14.40;99.90;;;;;;6122821;23;20573;-53
2022/11/08 10:27:52;;;;;;;3.38;1.42;;;14.40;99.90;;;;;;6122564;23;20157;-50
2022/11/08 10:30:47;;;;;;;4.60;1.77;;;14.20;99.90;;;;;;6122486;23;20177;-50
2022/11/08 10:33:22;;;;;;;4.30;1.83;;;14.10;99.90;;;;;;6118614;23;20161;-50
2022/11/08 10:35:53;;;;;;;4.03;2.10;;;14.20;99.90;;;;;;6122549;23;20144;-51
2022/11/08 10:38:30;;;;;;;4.13;1.80;;;14.30;99.90;;;;;;6122387;23;20161;-53
2022/11/08 10:41:24;;;;;;;3.25;1.50;;;14.30;99.90;;;;;;6122507;23;20195;-51
2022/11/08 10:44:14;;;;;;;2.97;1.48;;;14.40;99.90;;;;;;6122574;23;20469;-51
2022/11/08 10:46:44;;;;;;;1.90;1.60;;;14.40;99.90;;;;;;6122441;23;20216;-52
2022/11/08 10:49:31;;;;;;;2.95;1.70;;;14.50;99.90;;;;;;6122314;23;20138;-50
2022/11/08 10:52:00;;;;;;;3.63;1.80;;;14.60;99.90;;;;;;6122578;23;20252;-53
2022/11/08 10:54:41;;;;;;;3.53;1.67;;;14.70;99.90;;;;;;6122370;23;20156;-53
2022/11/08 10:57:08;;;;;;;2.88;1.90;;;14.70;99.90;;;;;;6096492;23;20154;-51
2022/11/08 10:59:34;;;;;;;4.32;1.60;;;14.70;99.90;;;;;;6122258;23;20153;-53
2022/11/08 11:02:00;;;;;;;2.55;1.88;;;14.80;99.90;;;;;;6122305;23;20149;-52
2022/11/08 11:04:29;;;;;;;3.70;1.98;;;14.80;99.90;;;;;;6122228;23;20188;-51
2022/11/08 11:07:03;;;;;;;3.08;1.60;;;14.90;99.90;;;;;;6123583;23;20156;-51
2022/11/08 11:09:29;;;;;;;3.30;2.00;;;15.00;99.90;;;;;;6097582;23;20140;-52
2022/11/08 11:12:07;;;;;;;2.50;1.75;;;15.00;99.90;;;;;;6097494;23;20280;-51
2022/11/08 11:14:33;;;;;;;4.32;1.55;;;15.20;99.90;;;;;;6123730;23;20243;-53
2022/11/08 11:17:07;;;;;;;2.80;1.85;;;15.20;99.90;;;;;;6123440;23;20213;-51
2022/11/08 11:19:33;;;;;;;4.30;1.92;;;15.30;99.90;;;;;;6123503;23;20499;-53
2022/11/08 11:22:04;;;;;;;3.45;1.67;;;15.20;99.90;;;;;;6123049;23;20154;-53
2022/11/08 11:24:31;;;;;;;4.45;1.90;;;15.20;99.90;;;;;;6122988;23;20520;-53
2022/11/08 11:26:57;;;;;;;5.43;2.10;;;15.20;99.90;;;;;;6123193;23;20581;-52
2022/11/08 11:29:27;;;;;;;3.17;1.70;;;15.20;99.90;;;;;;6122987;23;20153;-53
2022/11/08 11:31:54;;;;;;;4.13;2.00;;;15.30;99.90;;;;;;6123288;23;20173;-53
2022/11/08 11:34:22;;;;;;;3.67;1.80;;;15.40;99.90;;;;;;6123317;23;20165;-53
2022/11/08 11:37:14;;;;;;;2.83;1.67;;;15.50;99.90;;;;;;6123344;23;20154;-53
2022/11/08 11:40:04;;;;;;;3.65;1.90;;;15.40;99.90;;;;;;6111017;23;20165;-51
2022/11/08 11:43:05;;;;;;;5.85;1.80;;;15.40;99.90;;;;;;6122844;23;20499;-50
2022/11/08 11:45:51;;;;;;;4.05;2.05;;;15.30;99.90;;;;;;6123281;23;20480;-53
2022/11/08 11:48:28;;;;;;;2.72;1.60;;;15.30;99.90;;;;;;6122981;23;20588;-51
2022/11/08 11:50:55;;;;;;;4.65;2.00;;;15.20;99.90;;;;;;6123139;23;20177;-52
2022/11/08 11:53:26;;;;;;;2.13;1.70;;;15.30;99.90;;;;;;6123288;23;20199;-53
2022/11/08 11:56:39;;;;;;;4.65;2.10;;;15.40;99.90;;;;;;6123392;23;20144;-50
2022/11/08 11:59:37;;;;;;;2.85;1.85;;;15.60;99.90;;;;;;6123369;23;20134;-50
2022/11/08 12:02:45;;;;;;;3.08;1.80;;;15.70;99.90;;;;;;6122948;23;20552;-51
2022/11/08 12:05:48;;;;;;;4.32;1.92;;;15.70;99.90;;;;;;6097392;23;20169;-50
2022/11/08 12:08:52;;;;;;;3.42;2.00;;;15.80;99.90;;;;;;6123366;23;20508;-52
2022/11/08 12:11:35;;;;;;;5.82;2.00;;;15.80;99.90;;;;;;6123105;23;20530;-50
2022/11/08 12:14:19;;;;;;;2.78;2.00;;;15.50;99.90;;;;;;6122869;23;20153;-53
2022/11/08 12:17:13;;;;;;;7.05;1.80;;;15.50;99.90;;;;;;6122759;23;20202;-50
2022/11/08 12:19:44;;;;;;;4.35;1.85;;;15.60;99.90;;;;;;6123167;23;20153;-50
2022/11/08 12:22:28;;;;;;;2.38;1.60;;;15.50;99.90;;;;;;6123174;23;20152;-50
2022/11/08 12:25:12;;;;;;;2.92;1.70;;;15.60;99.90;;;;;;6123159;23;20157;-50
2022/11/08 12:27:50;;;;;;;3.63;2.08;;;15.70;99.90;;;;;;6123146;23;20165;-53
2022/11/08 12:30:24;;;;;;;2.65;1.67;;;15.90;99.90;;;;;;6122883;23;20181;-52
2022/11/08 12:32:59;;;;;;;3.15;1.90;;;16.10;99.90;;;;;;6123086;23;20642;-51
2022/11/08 12:35:43;;;;;;;4.32;1.70;;;16.00;99.90;;;;;;6123169;23;20224;-52
2022/11/08 12:38:21;;;;;;;4.85;1.77;;;16.10;99.90;;;;;;6123325;23;20149;-51
2022/11/08 12:41:07;;;;;;;3.85;1.83;;;16.10;99.90;;;;;;6123114;23;20149;-50
2022/11/08 12:44:11;;;;;;;3.53;1.73;;;16.00;99.90;;;;;;6122839;23;20180;-52
2022/11/08 12:47:04;;;;;;;3.58;1.80;;;16.10;99.90;;;;;;6123186;23;20145;-51
2022/11/08 12:49:42;;;;;;;3.83;1.95;;;16.10;99.90;;;;;;6081193;23;20474;-51
2022/11/08 12:52:28;;;;;;;4.53;1.80;;;16.10;99.90;;;;;;6123196;23;20588;-50
2022/11/08 12:54:59;;;;;;;2.72;1.77;;;16.10;99.90;;;;;;6077646;23;20158;-53
2022/11/08 12:57:30;;;;;;;4.22;1.83;;;16.20;99.90;;;;;;6123034;23;20137;-51
2022/11/08 13:00:07;;;;;;;3.88;1.80;;;16.30;99.90;;;;;;6123027;23;20168;-52
2022/11/08 13:02:37;;;;;;;3.95;1.90;;;16.30;99.90;;;;;;6122990;23;20169;-51
2022/11/08 13:05:08;;;;;;;3.85;1.98;;;16.20;99.90;;;;;;6123007;23;20498;-50
2022/11/08 13:07:41;;;;;;;4.30;1.90;;;16.10;99.90;;;;;;6122992;23;20146;-50
2022/11/08 13:10:29;;;;;;;4.75;1.85;;;16.00;99.90;;;;;;6122830;23;20173;-55
2022/11/08 13:13:20;;;;;;;3.63;1.90;;;15.90;99.90;;;;;;6122901;23;20154;-50
2022/11/08 13:16:06;;;;;;;3.47;1.65;;;15.90;99.90;;;;;;6121751;23;20489;-51
2022/11/08 13:18:34;;;;;;;2.60;1.90;;;15.80;99.90;;;;;;6122774;23;20224;-52
2022/11/08 13:21:19;;;;;;;2.80;1.70;;;15.90;99.90;;;;;;6122560;23;20180;-50
2022/11/08 13:23:45;;;;;;;4.78;1.73;;;16.00;99.90;;;;;;6122768;23;20615;-50